sensor_id;sensor_type;location;lat;lon;timestamp;pressure;altitude;pressure_sealevel;temperature;humidity
64292;BME280;50628;51.008;13.658;2022-10-29T00:01:05;100332.88;;;11.15;100.00
64292;BME280;50628;51.008;13.658;2022-10-29T00:06:10;100340.28;;;11.33;100.00
64292;BME280;50628;51.008;13.658;2022-10-29T00:11:13;100337.91;;;11.30;100.00
64292;BME280;50628;51.008;13.658;2022-10-29T00:16:17;100351.13;;;10.91;100.00
64292;BME280;50628;51.008;13.658;2022-10-29T00:21:22;100357.09;;;11.04;100.00
64292;BME280;50628;51.008;13.658;2022-10-29T00:26:27;100358.50;;;11.21;100.00
64292;BME280;50628;51.008;13.658;2022-10-29T00:31:29;100365.16;;;11.01;100.00
64292;BME280;50628;51.008;13.658;2022-10-29T00:36:32;100353.84;;;11.14;100.00
64292;BME280;50628;51.008;13.658;2022-10-29T00:41:34;100346.06;;;11.25;100.00
64292;BME280;50628;51.008;13.658;2022-10-29T00:46:36;100342.78;;;11.10;100.00
64292;BME280;50628;51.008;13.658;2022-10-29T00:51:39;100348.63;;;11.14;100.00
64292;BME280;50628;51.008;13.658;2022-10-29T00:56:45;100339.75;;;11.16;100.00
64292;BME280;50628;51.008;13.658;2022-10-29T01:01:48;100341.81;;;11.24;100.00
64292;BME280;50628;51.008;13.658;2022-10-29T01:06:51;100326.03;;;11.25;100.00
64292;BME280;50628;51.008;13.658;2022-10-29T01:12:02;100333.19;;;11.11;100.00
64292;BME280;50628;51.008;13.658;2022-10-29T01:17:13;100325.44;;;10.98;100.00
64292;BME280;50628;51.008;13.658;2022-10-29T01:22:26;100329.25;;;11.29;100.00
64292;BME280;50628;51.008;13.658;2022-10-29T01:27:47;100324.06;;;11.05;100.00
64292;BME280;50628;51.008;13.658;2022-10-29T01:33:03;100334.66;;;11.15;100.00
64292;BME280;50628;51.008;13.658;2022-10-29T01:38:13;100331.97;;;11.27;100.00
64292;BME280;50628;51.008;13.658;2022-10-29T01:43:23;100330.53;;;11.23;100.00
64292;BME280;50628;51.008;13.658;2022-10-29T01:48:30;100325.69;;;11.30;100.00
64292;BME280;50628;51.008;13.658;2022-10-29T01:53:34;100336.53;;;11.48;100.00
64292;BME280;50628;51.008;13.658;2022-10-29T01:58:37;100331.69;;;11.55;100.00
64292;BME280;50628;51.008;13.658;2022-10-29T02:03:49;100339.38;;;11.56;100.00
64292;BME280;50628;51.008;13.658;2022-10-29T02:09:00;100336.03;;;11.43;100.00
64292;BME280;50628;51.008;13.658;2022-10-29T02:14:11;100323.72;;;11.45;100.00
64292;BME280;50628;51.008;13.658;2022-10-29T02:19:17;100328.13;;;11.56;100.00
64292;BME280;50628;51.008;13.658;2022-10-29T02:24:18;100329.53;;;11.48;100.00
64292;BME280;50628;51.008;13.658;2022-10-29T02:29:20;100330.63;;;11.57;100.00
64292;BME280;50628;51.008;13.658;2022-10-29T02:34:23;100323.75;;;11.56;100.00
64292;BME280;50628;51.008;13.658;2022-10-29T02:39:25;100320.19;;;11.57;100.00
64292;BME280;50628;51.008;13.658;2022-10-29T02:44:26;100331.94;;;11.52;100.00
64292;BME280;50628;51.008;13.658;2022-10-29T02:49:30;100332.50;;;11.55;100.00
64292;BME280;50628;51.008;13.658;2022-10-29T02:54:31;100335.13;;;11.66;100.00
64292;BME280;50628;51.008;13.658;2022-10-29T02:59:33;100330.88;;;11.65;100.00
64292;BME280;50628;51.008;13.658;2022-10-29T03:04:36;100330.53;;;11.70;100.00
64292;BME280;50628;51.008;13.658;2022-10-29T03:09:40;100346.03;;;11.60;100.00
64292;BME280;50628;51.008;13.658;2022-10-29T03:14:42;100344.25;;;11.61;100.00
64292;BME280;50628;51.008;13.658;2022-10-29T03:19:45;100351.72;;;11.65;100.00
64292;BME280;50628;51.008;13.658;2022-10-29T03:24:47;100355.31;;;11.64;100.00
64292;BME280;50628;51.008;13.658;2022-10-29T03:29:48;100362.50;;;11.61;100.00
64292;BME280;50628;51.008;13.658;2022-10-29T03:34:51;100352.06;;;11.50;100.00
64292;BME280;50628;51.008;13.658;2022-10-29T03:39:53;100365.03;;;11.38;100.00
64292;BME280;50628;51.008;13.658;2022-10-29T03:44:55;100367.06;;;11.35;100.00
64292;BME280;50628;51.008;13.658;2022-10-29T03:49:58;100373.75;;;11.26;100.00
64292;BME280;50628;51.008;13.658;2022-10-29T03:54:59;100379.09;;;11.24;100.00
64292;BME280;50628;51.008;13.658;2022-10-29T04:00:02;100376.56;;;11.12;100.00
64292;BME280;50628;51.008;13.658;2022-10-29T04:05:14;100373.34;;;11.08;100.00
64292;BME280;50628;51.008;13.658;2022-10-29T04:10:16;100376.75;;;11.09;100.00
64292;BME280;50628;51.008;13.658;2022-10-29T04:15:18;100379.22;;;10.99;100.00
64292;BME280;50628;51.008;13.658;2022-10-29T04:20:21;100385.69;;;10.93;100.00
64292;BME280;50628;51.008;13.658;2022-10-29T04:25:22;100399.25;;;10.86;100.00
64292;BME280;50628;51.008;13.658;2022-10-29T04:30:24;100395.72;;;10.87;100.00
64292;BME280;50628;51.008;13.658;2022-10-29T04:35:28;100402.78;;;10.97;100.00
64292;BME280;50628;51.008;13.658;2022-10-29T04:40:29;100403.00;;;10.94;100.00
64292;BME280;50628;51.008;13.658;2022-10-29T04:45:32;100402.22;;;10.81;100.00
64292;BME280;50628;51.008;13.658;2022-10-29T04:50:39;100407.34;;;10.70;100.00
64292;BME280;50628;51.008;13.658;2022-10-29T04:55:41;100386.50;;;10.70;100.00
64292;BME280;50628;51.008;13.658;2022-10-29T05:00:43;100395.56;;;10.77;100.00
64292;BME280;50628;51.008;13.658;2022-10-29T05:05:46;100384.75;;;10.57;100.00
64292;BME280;50628;51.008;13.658;2022-10-29T05:10:48;100393.44;;;10.45;100.00
64292;BME280;50628;51.008;13.658;2022-10-29T05:15:50;100390.41;;;10.51;100.00
64292;BME280;50628;51.008;13.658;2022-10-29T05:20:54;100400.63;;;10.42;100.00
64292;BME280;50628;51.008;13.658;2022-10-29T05:25:55;100415.50;;;10.52;100.00
64292;BME280;50628;51.008;13.658;2022-10-29T05:30:59;100411.44;;;10.61;100.00
64292;BME280;50628;51.008;13.658;2022-10-29T05:36:03;100419.34;;;10.59;100.00
64292;BME280;50628;51.008;13.658;2022-10-29T05:41:05;100417.88;;;10.55;100.00
64292;BME280;50628;51.008;13.658;2022-10-29T05:46:07;100426.94;;;10.50;100.00
64292;BME280;50628;51.008;13.658;2022-10-29T05:51:10;100421.72;;;10.63;100.00
64292;BME280;50628;51.008;13.658;2022-10-29T05:56:11;100425.59;;;10.44;100.00
64292;BME280;50628;51.008;13.658;2022-10-29T06:01:13;100425.69;;;10.55;100.00
64292;BME280;50628;51.008;13.658;2022-10-29T06:06:16;100428.91;;;10.59;100.00
64292;BME280;50628;51.008;13.658;2022-10-29T06:11:18;100428.00;;;10.47;100.00
64292;BME280;50628;51.008;13.658;2022-10-29T06:16:20;100425.47;;;10.46;100.00
64292;BME280;50628;51.008;13.658;2022-10-29T06:21:23;100425.31;;;10.36;100.00
64292;BME280;50628;51.008;13.658;2022-10-29T06:26:25;100429.84;;;10.45;100.00
64292;BME280;50628;51.008;13.658;2022-10-29T06:31:27;100438.88;;;10.65;100.00
64292;BME280;50628;51.008;13.658;2022-10-29T06:36:30;100442.53;;;10.63;100.00
64292;BME280;50628;51.008;13.658;2022-10-29T06:41:32;100447.84;;;10.74;100.00
64292;BME280;50628;51.008;13.658;2022-10-29T06:46:33;100446.47;;;10.81;100.00
64292;BME280;50628;51.008;13.658;2022-10-29T06:51:36;100452.94;;;10.75;100.00
64292;BME280;50628;51.008;13.658;2022-10-29T06:56:38;100451.78;;;10.79;100.00
64292;BME280;50628;51.008;13.658;2022-10-29T07:01:40;100452.03;;;11.00;100.00
64292;BME280;50628;51.008;13.658;2022-10-29T07:06:43;100436.59;;;11.10;100.00
64292;BME280;50628;51.008;13.658;2022-10-29T07:11:45;100444.47;;;11.21;100.00
64292;BME280;50628;51.008;13.658;2022-10-29T07:16:47;100449.56;;;11.23;100.00
64292;BME280;50628;51.008;13.658;2022-10-29T07:21:50;100456.25;;;11.38;100.00
64292;BME280;50628;51.008;13.658;2022-10-29T07:26:52;100450.50;;;11.46;100.00
64292;BME280;50628;51.008;13.658;2022-10-29T07:31:53;100443.59;;;11.69;100.00
64292;BME280;50628;51.008;13.658;2022-10-29T07:36:57;100436.38;;;12.08;100.00
64292;BME280;50628;51.008;13.658;2022-10-29T07:41:58;100432.84;;;12.43;100.00
64292;BME280;50628;51.008;13.658;2022-10-29T07:47:00;100428.09;;;12.70;100.00
64292;BME280;50628;51.008;13.658;2022-10-29T07:52:04;100423.66;;;12.93;100.00
64292;BME280;50628;51.008;13.658;2022-10-29T07:57:05;100427.06;;;13.05;100.00
64292;BME280;50628;51.008;13.658;2022-10-29T08:02:08;100425.72;;;13.22;100.00
64292;BME280;50628;51.008;13.658;2022-10-29T08:07:11;100428.34;;;13.54;100.00
64292;BME280;50628;51.008;13.658;2022-10-29T08:12:12;100427.16;;;13.79;100.00
64292;BME280;50628;51.008;13.658;2022-10-29T08:17:14;100420.38;;;13.98;100.00
64292;BME280;50628;51.008;13.658;2022-10-29T08:22:17;100414.72;;;14.23;100.00
64292;BME280;50628;51.008;13.658;2022-10-29T08:27:19;100402.00;;;14.40;100.00
64292;BME280;50628;51.008;13.658;2022-10-29T08:32:20;100385.41;;;14.60;100.00
64292;BME280;50628;51.008;13.658;2022-10-29T08:37:24;100374.16;;;14.79;100.00
64292;BME280;50628;51.008;13.658;2022-10-29T08:42:38;100357.06;;;15.14;100.00
64292;BME280;50628;51.008;13.658;2022-10-29T08:47:51;100363.41;;;15.31;100.00
64292;BME280;50628;51.008;13.658;2022-10-29T08:53:00;100365.72;;;15.63;100.00
64292;BME280;50628;51.008;13.658;2022-10-29T08:58:10;100359.91;;;15.79;100.00
64292;BME280;50628;51.008;13.658;2022-10-29T09:03:14;100358.75;;;16.01;100.00
64292;BME280;50628;51.008;13.658;2022-10-29T09:08:29;100348.41;;;16.27;100.00
64292;BME280;50628;51.008;13.658;2022-10-29T09:13:44;100352.13;;;16.52;100.00
64292;BME280;50628;51.008;13.658;2022-10-29T09:19:02;100331.50;;;16.75;100.00
64292;BME280;50628;51.008;13.658;2022-10-29T09:24:12;100321.41;;;16.80;100.00
64292;BME280;50628;51.008;13.658;2022-10-29T09:29:27;100319.00;;;16.87;100.00
64292;BME280;50628;51.008;13.658;2022-10-29T09:34:37;100323.69;;;16.65;100.00
64292;BME280;50628;51.008;13.658;2022-10-29T09:39:44;100324.75;;;16.55;100.00
64292;BME280;50628;51.008;13.658;2022-10-29T09:44:50;100343.03;;;16.47;100.00
64292;BME280;50628;51.008;13.658;2022-10-29T09:50:00;100345.53;;;16.48;100.00
64292;BME280;50628;51.008;13.658;2022-10-29T09:55:14;100340.81;;;16.70;100.00
64292;BME280;50628;51.008;13.658;2022-10-29T10:00:20;100357.66;;;16.77;100.00
64292;BME280;50628;51.008;13.658;2022-10-29T10:05:25;100346.19;;;16.78;100.00
64292;BME280;50628;51.008;13.658;2022-10-29T10:10:29;100352.59;;;17.11;100.00
64292;BME280;50628;51.008;13.658;2022-10-29T10:15:33;100345.09;;;17.16;100.00
64292;BME280;50628;51.008;13.658;2022-10-29T10:20:37;100329.69;;;17.21;100.00
64292;BME280;50628;51.008;13.658;2022-10-29T10:25:41;100326.34;;;17.37;100.00
64292;BME280;50628;51.008;13.658;2022-10-29T10:30:43;100331.69;;;17.53;100.00
64292;BME280;50628;51.008;13.658;2022-10-29T10:35:45;100311.53;;;17.88;100.00
64292;BME280;50628;51.008;13.658;2022-10-29T10:40:55;100308.91;;;17.88;100.00
64292;BME280;50628;51.008;13.658;2022-10-29T10:46:04;100296.19;;;17.84;100.00
64292;BME280;50628;51.008;13.658;2022-10-29T10:51:17;100305.88;;;18.09;100.00
64292;BME280;50628;51.008;13.658;2022-10-29T10:56:21;100308.91;;;18.31;100.00
64292;BME280;50628;51.008;13.658;2022-10-29T11:01:27;100304.91;;;18.19;100.00
64292;BME280;50628;51.008;13.658;2022-10-29T11:06:31;100292.81;;;18.42;100.00
64292;BME280;50628;51.008;13.658;2022-10-29T11:11:38;100282.47;;;18.73;100.00
64292;BME280;50628;51.008;13.658;2022-10-29T11:16:45;100269.84;;;18.93;100.00
64292;BME280;50628;51.008;13.658;2022-10-29T11:21:57;100266.03;;;19.04;100.00
64292;BME280;50628;51.008;13.658;2022-10-29T11:27:07;100253.34;;;18.91;100.00
64292;BME280;50628;51.008;13.658;2022-10-29T11:32:15;100252.19;;;19.10;100.00
64292;BME280;50628;51.008;13.658;2022-10-29T11:37:22;100241.31;;;18.97;100.00
64292;BME280;50628;51.008;13.658;2022-10-29T11:42:27;100235.53;;;19.01;100.00
64292;BME280;50628;51.008;13.658;2022-10-29T11:47:40;100230.88;;;19.20;100.00
64292;BME280;50628;51.008;13.658;2022-10-29T11:52:47;100229.06;;;19.29;100.00
64292;BME280;50628;51.008;13.658;2022-10-29T11:57:58;100232.69;;;19.19;100.00
64292;BME280;50628;51.008;13.658;2022-10-29T12:03:27;100220.69;;;19.64;100.00
64292;BME280;50628;51.008;13.658;2022-10-29T12:08:45;100214.94;;;19.61;100.00
64292;BME280;50628;51.008;13.658;2022-10-29T12:13:58;100205.88;;;19.55;100.00
64292;BME280;50628;51.008;13.658;2022-10-29T12:19:08;100213.38;;;19.83;100.00
64292;BME280;50628;51.008;13.658;2022-10-29T12:24:25;100210.97;;;19.73;100.00
64292;BME280;50628;51.008;13.658;2022-10-29T12:29:38;100201.97;;;19.91;100.00
64292;BME280;50628;51.008;13.658;2022-10-29T12:34:51;100203.41;;;20.01;100.00
64292;BME280;50628;51.008;13.658;2022-10-29T12:39:59;100191.38;;;20.22;100.00
64292;BME280;50628;51.008;13.658;2022-10-29T12:45:12;100187.19;;;20.50;100.00
64292;BME280;50628;51.008;13.658;2022-10-29T12:50:23;100174.34;;;20.70;100.00
64292;BME280;50628;51.008;13.658;2022-10-29T12:55:30;100166.19;;;20.57;100.00
64292;BME280;50628;51.008;13.658;2022-10-29T13:00:45;100170.00;;;20.92;100.00
64292;BME280;50628;51.008;13.658;2022-10-29T13:05:47;100161.88;;;20.79;100.00
64292;BME280;50628;51.008;13.658;2022-10-29T13:10:54;100164.78;;;20.46;100.00
64292;BME280;50628;51.008;13.658;2022-10-29T13:16:01;100148.78;;;20.63;100.00
64292;BME280;50628;51.008;13.658;2022-10-29T13:21:04;100150.03;;;20.90;100.00
64292;BME280;50628;51.008;13.658;2022-10-29T13:26:07;100157.94;;;20.75;100.00
64292;BME280;50628;51.008;13.658;2022-10-29T13:31:45;100149.97;;;20.60;100.00
64292;BME280;50628;51.008;13.658;2022-10-29T13:36:48;100137.84;;;20.43;100.00
64292;BME280;50628;51.008;13.658;2022-10-29T13:41:51;100141.84;;;20.16;100.00
64292;BME280;50628;51.008;13.658;2022-10-29T13:46:57;100138.97;;;20.25;100.00
64292;BME280;50628;51.008;13.658;2022-10-29T13:52:04;100148.09;;;20.23;100.00
64292;BME280;50628;51.008;13.658;2022-10-29T13:57:17;100149.75;;;20.24;100.00
64292;BME280;50628;51.008;13.658;2022-10-29T14:02:27;100145.56;;;20.06;100.00
64292;BME280;50628;51.008;13.658;2022-10-29T14:07:34;100162.78;;;19.71;100.00
64292;BME280;50628;51.008;13.658;2022-10-29T14:12:40;100159.41;;;19.46;100.00
64292;BME280;50628;51.008;13.658;2022-10-29T14:17:43;100158.16;;;19.65;100.00
64292;BME280;50628;51.008;13.658;2022-10-29T14:22:46;100153.97;;;20.33;100.00
64292;BME280;50628;51.008;13.658;2022-10-29T14:28:07;100163.66;;;20.41;100.00
64292;BME280;50628;51.008;13.658;2022-10-29T14:33:21;100156.34;;;19.74;100.00
64292;BME280;50628;51.008;13.658;2022-10-29T14:38:27;100165.44;;;19.55;100.00
64292;BME280;50628;51.008;13.658;2022-10-29T14:43:33;100164.72;;;19.77;100.00
64292;BME280;50628;51.008;13.658;2022-10-29T14:48:37;100158.88;;;19.90;100.00
64292;BME280;50628;51.008;13.658;2022-10-29T14:53:41;100156.41;;;19.88;100.00
64292;BME280;50628;51.008;13.658;2022-10-29T14:58:45;100154.38;;;19.99;100.00
64292;BME280;50628;51.008;13.658;2022-10-29T15:03:55;100161.09;;;19.31;100.00
64292;BME280;50628;51.008;13.658;2022-10-29T15:08:59;100173.03;;;18.36;100.00
64292;BME280;50628;51.008;13.658;2022-10-29T15:14:04;100176.16;;;18.24;100.00
64292;BME280;50628;51.008;13.658;2022-10-29T15:19:24;100171.84;;;18.06;100.00
64292;BME280;50628;51.008;13.658;2022-10-29T15:24:26;100175.94;;;17.92;100.00
64292;BME280;50628;51.008;13.658;2022-10-29T15:29:31;100170.66;;;17.84;100.00
64292;BME280;50628;51.008;13.658;2022-10-29T15:34:36;100186.03;;;17.71;100.00
64292;BME280;50628;51.008;13.658;2022-10-29T15:39:58;100186.34;;;17.34;100.00
64292;BME280;50628;51.008;13.658;2022-10-29T15:45:14;100191.47;;;17.35;100.00
64292;BME280;50628;51.008;13.658;2022-10-29T15:50:21;100199.38;;;17.09;100.00
64292;BME280;50628;51.008;13.658;2022-10-29T15:55:26;100204.75;;;16.99;100.00
64292;BME280;50628;51.008;13.658;2022-10-29T16:00:29;100192.97;;;16.67;100.00
64292;BME280;50628;51.008;13.658;2022-10-29T16:05:32;100198.69;;;16.45;100.00
64292;BME280;50628;51.008;13.658;2022-10-29T16:10:34;100198.16;;;16.23;100.00
64292;BME280;50628;51.008;13.658;2022-10-29T16:15:36;100194.41;;;16.08;100.00
64292;BME280;50628;51.008;13.658;2022-10-29T16:20:39;100206.13;;;15.86;100.00
64292;BME280;50628;51.008;13.658;2022-10-29T16:25:41;100218.00;;;15.90;100.00
64292;BME280;50628;51.008;13.658;2022-10-29T16:30:45;100212.63;;;15.82;100.00
64292;BME280;50628;51.008;13.658;2022-10-29T16:35:51;100211.00;;;15.81;100.00
64292;BME280;50628;51.008;13.658;2022-10-29T16:40:52;100206.75;;;15.70;100.00
64292;BME280;50628;51.008;13.658;2022-10-29T16:45:55;100208.63;;;15.50;100.00
64292;BME280;50628;51.008;13.658;2022-10-29T16:50:58;100205.47;;;15.37;100.00
64292;BME280;50628;51.008;13.658;2022-10-29T17:01:31;100213.50;;;15.26;100.00
64292;BME280;50628;51.008;13.658;2022-10-29T17:06:34;100204.25;;;15.31;100.00
64292;BME280;50628;51.008;13.658;2022-10-29T17:11:36;100202.22;;;15.25;100.00
64292;BME280;50628;51.008;13.658;2022-10-29T17:16:38;100203.03;;;15.26;100.00
64292;BME280;50628;51.008;13.658;2022-10-29T17:21:41;100206.72;;;15.33;100.00
64292;BME280;50628;51.008;13.658;2022-10-29T17:26:43;100209.78;;;15.28;100.00
64292;BME280;50628;51.008;13.658;2022-10-29T17:31:44;100215.44;;;15.24;100.00
64292;BME280;50628;51.008;13.658;2022-10-29T17:36:48;100225.81;;;15.15;100.00
64292;BME280;50628;51.008;13.658;2022-10-29T17:41:52;100220.97;;;15.21;100.00
64292;BME280;50628;51.008;13.658;2022-10-29T17:46:54;100211.63;;;14.99;100.00
64292;BME280;50628;51.008;13.658;2022-10-29T17:51:57;100220.34;;;14.89;100.00
64292;BME280;50628;51.008;13.658;2022-10-29T17:56:59;100210.28;;;14.85;100.00
64292;BME280;50628;51.008;13.658;2022-10-29T18:02:01;100210.56;;;14.82;100.00
64292;BME280;50628;51.008;13.658;2022-10-29T18:07:04;100218.16;;;14.75;100.00
64292;BME280;50628;51.008;13.658;2022-10-29T18:12:06;100211.94;;;14.76;100.00
64292;BME280;50628;51.008;13.658;2022-10-29T18:17:08;100211.53;;;14.61;100.00
64292;BME280;50628;51.008;13.658;2022-10-29T18:22:11;100221.34;;;14.59;100.00
64292;BME280;50628;51.008;13.658;2022-10-29T18:27:13;100214.84;;;14.54;100.00
64292;BME280;50628;51.008;13.658;2022-10-29T18:32:16;100209.13;;;14.39;100.00
64292;BME280;50628;51.008;13.658;2022-10-29T18:37:21;100210.38;;;14.25;100.00
64292;BME280;50628;51.008;13.658;2022-10-29T18:42:24;100219.34;;;14.32;100.00
64292;BME280;50628;51.008;13.658;2022-10-29T18:47:26;100207.63;;;14.36;100.00
64292;BME280;50628;51.008;13.658;2022-10-29T18:52:29;100212.19;;;14.24;100.00
64292;BME280;50628;51.008;13.658;2022-10-29T18:57:31;100212.72;;;14.28;100.00
64292;BME280;50628;51.008;13.658;2022-10-29T19:02:32;100213.38;;;14.11;100.00
64292;BME280;50628;51.008;13.658;2022-10-29T19:07:35;100222.06;;;14.01;100.00
64292;BME280;50628;51.008;13.658;2022-10-29T19:12:37;100222.03;;;13.92;100.00
64292;BME280;50628;51.008;13.658;2022-10-29T19:17:39;100224.22;;;13.87;100.00
64292;BME280;50628;51.008;13.658;2022-10-29T19:22:43;100221.16;;;13.81;100.00
64292;BME280;50628;51.008;13.658;2022-10-29T19:27:45;100219.91;;;13.76;100.00
64292;BME280;50628;51.008;13.658;2022-10-29T19:32:47;100222.84;;;13.52;100.00
64292;BME280;50628;51.008;13.658;2022-10-29T19:37:50;100221.53;;;13.36;100.00
64292;BME280;50628;51.008;13.658;2022-10-29T19:42:51;100221.34;;;13.28;100.00
64292;BME280;50628;51.008;13.658;2022-10-29T19:47:53;100223.88;;;13.18;100.00
64292;BME280;50628;51.008;13.658;2022-10-29T19:52:56;100234.16;;;13.10;100.00
64292;BME280;50628;51.008;13.658;2022-10-29T19:57:58;100218.97;;;13.04;100.00
64292;BME280;50628;51.008;13.658;2022-10-29T20:03:00;100226.91;;;13.03;100.00
64292;BME280;50628;51.008;13.658;2022-10-29T20:08:03;100222.72;;;13.11;100.00
64292;BME280;50628;51.008;13.658;2022-10-29T20:13:05;100216.28;;;12.94;100.00
64292;BME280;50628;51.008;13.658;2022-10-29T20:18:06;100212.09;;;13.03;100.00
64292;BME280;50628;51.008;13.658;2022-10-29T20:23:09;100204.81;;;12.86;100.00
64292;BME280;50628;51.008;13.658;2022-10-29T20:28:11;100208.81;;;12.69;100.00
64292;BME280;50628;51.008;13.658;2022-10-29T20:33:13;100208.69;;;12.70;100.00
64292;BME280;50628;51.008;13.658;2022-10-29T20:38:16;100209.38;;;12.72;100.00
64292;BME280;50628;51.008;13.658;2022-10-29T20:43:18;100204.41;;;12.69;100.00
64292;BME280;50628;51.008;13.658;2022-10-29T20:48:20;100206.72;;;12.63;100.00
64292;BME280;50628;51.008;13.658;2022-10-29T20:53:23;100207.81;;;12.49;100.00
64292;BME280;50628;51.008;13.658;2022-10-29T20:58:24;100206.47;;;12.33;100.00
64292;BME280;50628;51.008;13.658;2022-10-29T21:03:26;100200.16;;;12.36;100.00
64292;BME280;50628;51.008;13.658;2022-10-29T21:08:30;100199.97;;;12.28;100.00
64292;BME280;50628;51.008;13.658;2022-10-29T21:13:32;100202.94;;;12.23;100.00
64292;BME280;50628;51.008;13.658;2022-10-29T21:18:37;100210.44;;;12.05;100.00
64292;BME280;50628;51.008;13.658;2022-10-29T21:23:41;100206.25;;;12.14;100.00
64292;BME280;50628;51.008;13.658;2022-10-29T21:28:42;100197.75;;;12.01;100.00
64292;BME280;50628;51.008;13.658;2022-10-29T21:33:45;100194.94;;;11.93;100.00
64292;BME280;50628;51.008;13.658;2022-10-29T21:38:50;100206.56;;;11.88;100.00
64292;BME280;50628;51.008;13.658;2022-10-29T21:43:52;100200.88;;;11.95;100.00
64292;BME280;50628;51.008;13.658;2022-10-29T21:48:54;100195.41;;;11.98;100.00
64292;BME280;50628;51.008;13.658;2022-10-29T21:53:57;100192.53;;;12.01;100.00
64292;BME280;50628;51.008;13.658;2022-10-29T21:58:59;100193.72;;;11.85;100.00
64292;BME280;50628;51.008;13.658;2022-10-29T22:04:01;100192.78;;;11.64;100.00
64292;BME280;50628;51.008;13.658;2022-10-29T22:09:04;100197.06;;;11.54;100.00
64292;BME280;50628;51.008;13.658;2022-10-29T22:14:05;100196.81;;;11.68;100.00
64292;BME280;50628;51.008;13.658;2022-10-29T22:19:07;100200.50;;;11.65;100.00
64292;BME280;50628;51.008;13.658;2022-10-29T22:24:11;100196.34;;;11.40;100.00
64292;BME280;50628;51.008;13.658;2022-10-29T22:29:13;100190.28;;;11.29;100.00
64292;BME280;50628;51.008;13.658;2022-10-29T22:34:14;100196.84;;;11.34;100.00
64292;BME280;50628;51.008;13.658;2022-10-29T22:39:18;100182.13;;;11.56;100.00
64292;BME280;50628;51.008;13.658;2022-10-29T22:44:19;100187.00;;;11.49;100.00
64292;BME280;50628;51.008;13.658;2022-10-29T22:49:21;100187.00;;;11.49;100.00
64292;BME280;50628;51.008;13.658;2022-10-29T22:54:24;100184.00;;;11.31;100.00
64292;BME280;50628;51.008;13.658;2022-10-29T22:59:26;100190.44;;;11.27;100.00
64292;BME280;50628;51.008;13.658;2022-10-29T23:04:28;100190.28;;;11.17;100.00
64292;BME280;50628;51.008;13.658;2022-10-29T23:09:31;100196.72;;;11.24;100.00
64292;BME280;50628;51.008;13.658;2022-10-29T23:14:32;100189.22;;;11.31;100.00
64292;BME280;50628;51.008;13.658;2022-10-29T23:19:34;100184.38;;;11.38;100.00
64292;BME280;50628;51.008;13.658;2022-10-29T23:24:37;100192.94;;;11.40;100.00
64292;BME280;50628;51.008;13.658;2022-10-29T23:29:39;100188.53;;;11.29;100.00
64292;BME280;50628;51.008;13.658;2022-10-29T23:34:41;100181.53;;;11.18;100.00
64292;BME280;50628;51.008;13.658;2022-10-29T23:39:44;100181.03;;;11.13;100.00
64292;BME280;50628;51.008;13.658;2022-10-29T23:44:45;100185.09;;;11.29;100.00
64292;BME280;50628;51.008;13.658;2022-10-29T23:49:47;100180.59;;;11.31;100.00
64292;BME280;50628;51.008;13.658;2022-10-29T23:54:50;100175.28;;;11.32;100.00
64292;BME280;50628;51.008;13.658;2022-10-29T23:59:52;100175.13;;;11.34;100.00
